createdAt,value
2023-03-22T00:01:24.207Z,99925.50
2023-03-22T00:06:25.479Z,99926.56
2023-03-22T00:11:26.742Z,99916.56
2023-03-22T00:16:28.020Z,99914.44
2023-03-22T00:21:29.225Z,99912.09
2023-03-22T00:26:30.509Z,99907.63
2023-03-22T00:31:31.854Z,99902.97
2023-03-22T00:36:33.045Z,99894.13
2023-03-22T00:41:34.198Z,99883.16
2023-03-22T00:46:35.394Z,99885.28
2023-03-22T00:51:36.561Z,99873.53
2023-03-22T00:56:38.284Z,99874.41
2023-03-22T01:01:39.504Z,99858.19
2023-03-22T01:06:40.758Z,99849.34
2023-03-22T01:11:42.115Z,99847.44
2023-03-22T01:16:43.374Z,99841.31
2023-03-22T01:21:44.558Z,99852.75
2023-03-22T01:26:45.794Z,99851.59
2023-03-22T01:31:46.934Z,99844.31
2023-03-22T01:36:48.202Z,99836.06
2023-03-22T01:41:49.393Z,99835.00
2023-03-22T01:46:50.568Z,99833.84
2023-03-22T01:51:51.755Z,99823.72
2023-03-22T01:56:52.959Z,99817.25
2023-03-22T02:01:54.167Z,99813.53
2023-03-22T02:06:55.588Z,99806.34
2023-03-22T02:11:56.765Z,99805.41
2023-03-22T02:16:57.942Z,99798.09
2023-03-22T02:21:59.114Z,99794.59
2023-03-22T02:27:00.649Z,99782.66
2023-03-22T02:32:01.801Z,99778.78
2023-03-22T02:37:03.419Z,99781.09
2023-03-22T02:42:04.610Z,99772.47
2023-03-22T02:47:06.296Z,99774.34
2023-03-22T02:52:07.458Z,99762.19
2023-03-22T02:57:08.640Z,99761.56
2023-03-22T03:02:09.912Z,99747.03
2023-03-22T03:07:11.172Z,99745.56
2023-03-22T03:12:12.311Z,99740.41
2023-03-22T03:17:13.512Z,99740.72
2023-03-22T03:22:14.716Z,99743.41
2023-03-22T03:27:16.909Z,99734.03
2023-03-22T03:32:18.095Z,99731.19
2023-03-22T03:37:19.258Z,99736.50
2023-03-22T03:42:20.675Z,99717.69
2023-03-22T03:47:21.884Z,99718.56
2023-03-22T03:52:24.451Z,99718.88
2023-03-22T03:57:25.712Z,99732.50
2023-03-22T04:02:26.904Z,99730.09
2023-03-22T04:07:28.161Z,99730.31
2023-03-22T04:12:29.356Z,99732.97
2023-03-22T04:17:32.076Z,99736.81
2023-03-22T04:22:38.428Z,99750.25
2023-03-22T04:27:39.675Z,99740.94
2023-03-22T04:32:40.833Z,99740.81
2023-03-22T04:37:42.966Z,99745.03
2023-03-22T04:42:44.290Z,99736.56
2023-03-22T04:47:45.717Z,99727.97
2023-03-22T04:52:47.947Z,99725.38
2023-03-22T04:57:49.223Z,99705.19
2023-03-22T05:02:50.738Z,99708.22
2023-03-22T05:07:52.060Z,99708.50
2023-03-22T05:12:53.290Z,99713.25
2023-03-22T05:17:55.649Z,99710.53
2023-03-22T05:22:56.817Z,99706.56
2023-03-22T05:28:01.292Z,99696.75
2023-03-22T05:33:03.382Z,99702.84
2023-03-22T05:38:04.638Z,99699.09
2023-03-22T05:43:05.902Z,99700.34
2023-03-22T05:48:07.201Z,99714.91
2023-03-22T05:53:08.432Z,99713.63
2023-03-22T05:58:10.813Z,99708.63
2023-03-22T06:03:12.047Z,99715.94
2023-03-22T06:08:13.303Z,99712.31
2023-03-22T06:13:14.590Z,99706.69
2023-03-22T06:18:15.848Z,99707.63
2023-03-22T06:23:17.097Z,99708.97
2023-03-22T06:28:18.261Z,99712.41
2023-03-22T06:33:19.458Z,99720.06
2023-03-22T06:38:20.651Z,99707.13
2023-03-22T06:43:21.790Z,99717.19
2023-03-22T06:48:23.039Z,99721.44
2023-03-22T06:53:24.294Z,99708.78
2023-03-22T06:58:25.682Z,99716.75
2023-03-22T07:03:26.879Z,99673.75
2023-03-22T07:08:28.002Z,99703.13
2023-03-22T07:13:29.138Z,99711.31
2023-03-22T07:18:30.586Z,99710.66
2023-03-22T07:23:31.735Z,99698.44
2023-03-22T07:28:32.924Z,99698.00
2023-03-22T07:33:34.162Z,99694.34
2023-03-22T07:38:35.394Z,99682.53
2023-03-22T07:43:50.711Z,99674.41
2023-03-22T07:48:53.900Z,99670.00
2023-03-22T07:53:55.086Z,99669.91
2023-03-22T07:58:56.393Z,99668.03
2023-03-22T08:03:57.661Z,99664.94
2023-03-22T08:08:58.836Z,99667.38
2023-03-22T08:14:00.210Z,99655.19
2023-03-22T08:19:01.496Z,99658.44
2023-03-22T08:24:02.705Z,99651.44
2023-03-22T08:29:03.937Z,99648.75
2023-03-22T08:34:05.459Z,99643.75
2023-03-22T08:39:06.720Z,99645.69
2023-03-22T08:44:07.955Z,99649.66
2023-03-22T08:49:10.605Z,99656.25
2023-03-22T08:54:11.797Z,99658.47
2023-03-22T08:59:12.977Z,99664.00
2023-03-22T09:04:14.275Z,99652.53
2023-03-22T09:09:15.761Z,99673.97
2023-03-22T09:14:16.964Z,99655.81
2023-03-22T09:19:18.166Z,99645.91
2023-03-22T09:24:19.389Z,99659.22
2023-03-22T09:29:20.913Z,99650.25
2023-03-22T09:34:22.112Z,99651.94
2023-03-22T09:39:23.412Z,99651.09
2023-03-22T09:44:24.591Z,99654.16
2023-03-22T09:49:26.152Z,99634.72
2023-03-22T09:54:27.317Z,99627.94
2023-03-22T09:59:28.464Z,99628.50
2023-03-22T10:04:29.770Z,99636.72
2023-03-22T10:09:30.942Z,99640.78
2023-03-22T10:14:32.117Z,99635.88
2023-03-22T10:19:33.320Z,99640.09
2023-03-22T10:24:34.509Z,99633.22
2023-03-22T10:29:35.716Z,99633.06
2023-03-22T10:34:37.013Z,99626.88
2023-03-22T10:39:39.847Z,99622.81
2023-03-22T10:44:41.160Z,99628.59
2023-03-22T10:49:42.619Z,99629.16
2023-03-22T10:54:43.930Z,99633.47
2023-03-22T10:59:45.405Z,99628.41
2023-03-22T11:04:46.592Z,99637.34
2023-03-22T11:09:47.768Z,99634.38
2023-03-22T11:14:49.150Z,99627.53
2023-03-22T11:19:50.529Z,99620.94
2023-03-22T11:24:51.777Z,99626.69
2023-03-22T11:29:52.983Z,99620.81
2023-03-22T11:34:54.177Z,99627.34
2023-03-22T11:39:55.359Z,99620.06
2023-03-22T11:44:56.795Z,99581.22
2023-03-22T11:49:58.000Z,99624.88
2023-03-22T11:54:59.225Z,99615.22
2023-03-22T12:00:00.430Z,99622.06
2023-03-22T12:05:02.283Z,99612.88
2023-03-22T12:10:03.508Z,99606.47
2023-03-22T12:15:04.663Z,99607.13
2023-03-22T12:20:08.914Z,99610.50
2023-03-22T12:25:10.131Z,99613.66
2023-03-22T12:30:11.374Z,99609.25
2023-03-22T12:35:17.697Z,99589.63
2023-03-22T12:40:19.364Z,99603.03
2023-03-22T12:45:20.551Z,99597.16
2023-03-22T12:50:21.731Z,99599.94
2023-03-22T12:55:22.979Z,99592.41
2023-03-22T13:00:24.440Z,99585.91
2023-03-22T13:05:25.784Z,99589.13
2023-03-22T13:10:27.100Z,99597.50
2023-03-22T13:15:34.876Z,99593.91
2023-03-22T13:20:42.163Z,99601.25
2023-03-22T13:25:43.502Z,99601.75
2023-03-22T13:30:44.681Z,99596.19
2023-03-22T13:35:46.323Z,99589.06
2023-03-22T13:40:47.520Z,99587.59
2023-03-22T13:45:48.723Z,99583.22
2023-03-22T13:50:49.930Z,99578.38
2023-03-22T13:55:53.936Z,99574.63
2023-03-22T14:00:55.157Z,99549.34
2023-03-22T14:05:57.118Z,99553.09
2023-03-22T14:10:58.291Z,99546.44
2023-03-22T14:16:00.042Z,99544.88
2023-03-22T14:21:01.263Z,99537.16
